Time;durP1;ratioP1;P1;durP2;ratioP2;P2;SDS_P1;SDS_P2;PMS_P1;PMS_P2;Temp;Humidity;BMP_temperature;BMP_pressure;BME280_temperature;BME280_humidity;BME280_pressure;Samples;Min_cycle;Max_cycle;Signal;HPM_P1;HPM_P2
2021/03/12 00:02:24;;;;;;;2.45;1.30;;;8.20;90.20;;;;;;5013220;28;20030;-72
2021/03/12 00:04:50;;;;;;;9.23;1.55;;;8.30;89.70;;;;;;5012608;28;20105;-73
2021/03/12 00:07:16;;;;;;;4.28;1.52;;;8.30;89.40;;;;;;5011981;28;20049;-73
2021/03/12 00:09:42;;;;;;;6.90;1.17;;;8.30;89.00;;;;;;5013199;28;20033;-73
2021/03/12 00:12:09;;;;;;;6.00;1.52;;;8.30;88.80;;;;;;5012474;28;20022;-73
2021/03/12 00:14:35;;;;;;;3.33;1.52;;;8.30;88.80;;;;;;5013039;28;20491;-74
2021/03/12 00:17:01;;;;;;;3.72;1.65;;;8.30;88.60;;;;;;5011280;28;20026;-73
2021/03/12 00:19:26;;;;;;;4.38;1.30;;;8.30;88.20;;;;;;5011731;28;20014;-73
2021/03/12 00:21:52;;;;;;;3.70;1.75;;;8.30;88.20;;;;;;5012278;28;20521;-73
2021/03/12 00:24:18;;;;;;;1.65;1.00;;;8.30;88.10;;;;;;5011512;28;20053;-72
2021/03/12 00:26:44;;;;;;;4.40;1.42;;;8.30;87.80;;;;;;5028169;28;20049;-73
2021/03/12 00:29:10;;;;;;;3.58;0.88;;;8.30;87.30;;;;;;5011911;28;20105;-75
2021/03/12 00:31:35;;;;;;;3.53;1.63;;;8.30;87.00;;;;;;5027968;28;20034;-73
2021/03/12 00:34:01;;;;;;;4.45;0.98;;;8.30;87.20;;;;;;5012163;28;20589;-71
2021/03/12 00:36:27;;;;;;;2.30;1.00;;;8.30;86.50;;;;;;5012409;28;20097;-71
2021/03/12 00:38:53;;;;;;;3.22;2.00;;;8.30;86.50;;;;;;5012104;28;20376;-74
2021/03/12 00:41:18;;;;;;;4.28;1.02;;;8.40;86.10;;;;;;5012789;28;20526;-72
2021/03/12 00:43:44;;;;;;;2.97;1.30;;;8.40;86.10;;;;;;5012718;28;20036;-72
2021/03/12 00:46:12;;;;;;;4.90;1.08;;;8.40;85.50;;;;;;5011551;28;20022;-74
2021/03/12 00:48:38;;;;;;;1.50;0.85;;;8.40;85.40;;;;;;5012379;28;20094;-73
2021/03/12 00:51:05;;;;;;;2.70;1.08;;;8.40;85.00;;;;;;5011453;28;20503;-73
2021/03/12 00:53:31;;;;;;;4.60;1.00;;;8.40;85.00;;;;;;5012379;28;20022;-72
2021/03/12 00:55:57;;;;;;;4.88;1.42;;;8.40;84.70;;;;;;5011776;28;20028;-73
2021/03/12 00:58:24;;;;;;;2.65;1.20;;;8.40;84.10;;;;;;5012385;28;20478;-71
2021/03/12 01:00:50;;;;;;;1.67;0.75;;;8.40;84.00;;;;;;5012399;28;20087;-72
2021/03/12 01:03:16;;;;;;;2.90;1.05;;;8.40;83.90;;;;;;5011740;28;20026;-73
2021/03/12 01:05:43;;;;;;;3.10;1.38;;;8.40;83.90;;;;;;5012102;28;20022;-74
2021/03/12 01:08:09;;;;;;;2.95;1.48;;;8.40;83.30;;;;;;5011681;28;20054;-73
2021/03/12 01:10:35;;;;;;;4.45;1.38;;;8.40;83.70;;;;;;5012318;28;20029;-73
2021/03/12 01:13:02;;;;;;;2.95;1.00;;;8.40;83.30;;;;;;5011526;28;20030;-72
2021/03/12 01:15:28;;;;;;;2.22;1.05;;;8.40;83.10;;;;;;5010504;28;20113;-73
2021/03/12 01:17:55;;;;;;;1.52;1.25;;;8.40;83.10;;;;;;5027406;28;20057;-73
2021/03/12 01:20:29;;;;;;;7.40;1.98;;;8.40;82.90;;;;;;5012031;28;20087;-73
2021/03/12 01:22:57;;;;;;;5.20;2.22;;;8.40;82.80;;;;;;5011495;28;20028;-75
2021/03/12 01:25:26;;;;;;;2.63;0.90;;;8.40;82.70;;;;;;5012227;28;20490;-74
2021/03/12 01:27:52;;;;;;;3.88;1.17;;;8.40;82.80;;;;;;5011669;28;20079;-73
2021/03/12 01:30:23;;;;;;;2.03;1.23;;;8.30;82.90;;;;;;5011539;28;20134;-75
2021/03/12 01:32:49;;;;;;;3.80;1.38;;;8.30;82.70;;;;;;5012013;28;20137;-74
2021/03/12 01:35:15;;;;;;;3.40;1.30;;;8.30;82.80;;;;;;5011291;28;20109;-74
2021/03/12 01:37:41;;;;;;;0.85;0.73;;;8.30;82.70;;;;;;5011878;28;20038;-73
2021/03/12 01:40:10;;;;;;;1.88;0.93;;;8.30;82.70;;;;;;5011225;28;20033;-73
2021/03/12 01:42:36;;;;;;;1.05;0.93;;;8.40;82.60;;;;;;5010446;28;20483;-74
2021/03/12 01:45:06;;;;;;;7.20;1.85;;;8.40;82.70;;;;;;5011191;28;20022;-74
2021/03/12 01:47:31;;;;;;;2.03;1.55;;;8.40;82.70;;;;;;5010453;28;20026;-74
2021/03/12 01:49:57;;;;;;;1.83;1.05;;;8.40;82.60;;;;;;5026192;28;20542;-74
2021/03/12 01:52:23;;;;;;;2.10;1.10;;;8.40;82.20;;;;;;5011629;28;20022;-73
2021/03/12 01:54:48;;;;;;;5.47;2.42;;;8.40;82.20;;;;;;5012082;28;20046;-73
2021/03/12 01:57:14;;;;;;;5.05;1.60;;;8.40;82.40;;;;;;5011108;28;20488;-74
2021/03/12 01:59:40;;;;;;;7.10;2.30;;;8.30;82.20;;;;;;5011680;28;20108;-73
2021/03/12 02:02:06;;;;;;;3.13;1.40;;;8.30;82.00;;;;;;5011095;28;20022;-73
2021/03/12 02:04:32;;;;;;;3.03;1.23;;;8.30;82.10;;;;;;5011597;28;20418;-72
2021/03/12 02:06:58;;;;;;;2.08;1.48;;;8.40;82.20;;;;;;5011103;28;20384;-75
2021/03/12 02:09:24;;;;;;;3.00;1.20;;;8.40;82.10;;;;;;5010252;28;20037;-74
2021/03/12 02:12:00;;;;;;;5.30;1.33;;;8.30;81.50;;;;;;5011420;28;20443;-73
2021/03/12 02:14:36;;;;;;;4.38;1.20;;;8.40;81.50;;;;;;5011793;28;20025;-73
2021/03/12 02:17:14;;;;;;;6.32;2.30;;;8.30;81.30;;;;;;5009678;28;20025;-74
2021/03/12 02:20:19;;;;;;;2.72;1.40;;;8.30;81.60;;;;;;5011604;28;20033;-73
2021/03/12 02:22:56;;;;;;;5.50;1.38;;;8.30;81.50;;;;;;5010259;28;20061;-74
2021/03/12 02:25:24;;;;;;;9.07;1.60;;;8.30;81.50;;;;;;5010896;28;20049;-73
2021/03/12 02:27:50;;;;;;;6.47;1.75;;;8.30;81.40;;;;;;5011386;28;20030;-73
2021/03/12 02:30:16;;;;;;;10.52;1.42;;;8.30;81.40;;;;;;5010597;28;20080;-73
2021/03/12 02:32:47;;;;;;;3.90;1.27;;;8.30;81.50;;;;;;5011628;28;20036;-74
2021/03/12 02:35:17;;;;;;;5.03;1.63;;;8.30;81.30;;;;;;5010815;28;20073;-74
2021/03/12 02:37:44;;;;;;;6.53;1.90;;;8.30;81.40;;;;;;5011374;28;20476;-74
2021/03/12 02:40:11;;;;;;;3.22;1.30;;;8.30;81.40;;;;;;5010861;28;20022;-71
2021/03/12 02:42:39;;;;;;;1.25;0.90;;;8.30;81.20;;;;;;5015036;28;20026;-74
2021/03/12 02:45:07;;;;;;;5.70;1.00;;;8.30;81.20;;;;;;5012919;28;20022;-74
2021/03/12 02:47:33;;;;;;;2.30;1.40;;;8.30;81.00;;;;;;5013388;28;20096;-74
2021/03/12 02:49:59;;;;;;;2.40;1.17;;;8.20;81.20;;;;;;5014654;28;20053;-74
2021/03/12 02:52:26;;;;;;;1.63;0.98;;;8.20;81.30;;;;;;5012504;28;20030;-74
2021/03/12 02:54:53;;;;;;;2.13;1.10;;;8.20;81.40;;;;;;5014721;28;20022;-73
2021/03/12 02:57:21;;;;;;;1.48;0.73;;;8.20;81.30;;;;;;5014249;28;20068;-73
2021/03/12 02:59:49;;;;;;;1.95;0.93;;;8.20;81.20;;;;;;5014485;28;20026;-74
2021/03/12 03:02:17;;;;;;;4.93;2.08;;;8.20;80.90;;;;;;5013853;28;20104;-73
2021/03/12 03:04:44;;;;;;;4.40;1.35;;;8.20;81.10;;;;;;5013255;28;20026;-73
2021/03/12 03:07:14;;;;;;;2.70;0.98;;;8.20;80.90;;;;;;5012249;28;20514;-74
2021/03/12 03:09:42;;;;;;;2.35;0.95;;;8.20;81.00;;;;;;5014427;28;20030;-74
2021/03/12 03:12:11;;;;;;;2.97;1.27;;;8.20;81.00;;;;;;5013695;28;20084;-74
2021/03/12 03:14:38;;;;;;;4.15;1.20;;;8.20;81.00;;;;;;5014128;28;20014;-73
2021/03/12 03:17:09;;;;;;;5.45;1.25;;;8.20;80.70;;;;;;5013802;28;20026;-73
2021/03/12 03:19:36;;;;;;;2.30;1.00;;;8.20;80.90;;;;;;5013859;28;20022;-73
2021/03/12 03:22:03;;;;;;;1.10;0.85;;;8.10;80.90;;;;;;5014572;28;20352;-73
2021/03/12 03:24:32;;;;;;;2.65;1.38;;;8.20;80.90;;;;;;5013999;28;20076;-73
2021/03/12 03:26:57;;;;;;;1.80;0.88;;;8.20;80.80;;;;;;5012344;28;20022;-73
2021/03/12 03:29:24;;;;;;;5.72;1.38;;;8.20;80.30;;;;;;5013206;28;20029;-73
2021/03/12 03:31:50;;;;;;;1.27;0.93;;;8.10;80.50;;;;;;5014194;28;20116;-74
2021/03/12 03:34:16;;;;;;;8.68;1.50;;;8.10;80.70;;;;;;5013346;28;20159;-74
2021/03/12 03:36:43;;;;;;;2.22;0.98;;;8.10;80.50;;;;;;5013844;28;20033;-75
2021/03/12 03:39:10;;;;;;;2.13;0.88;;;8.10;80.60;;;;;;5011827;28;20029;-75
2021/03/12 03:41:48;;;;;;;1.85;0.90;;;8.10;80.60;;;;;;5013481;28;20034;-74
2021/03/12 03:44:17;;;;;;;5.55;1.73;;;8.20;81.10;;;;;;5012833;28;20382;-73
2021/03/12 03:46:45;;;;;;;3.15;1.65;;;8.10;80.40;;;;;;5028951;28;20029;-74
2021/03/12 03:49:15;;;;;;;3.22;1.05;;;8.10;80.40;;;;;;5013118;28;20052;-73
2021/03/12 03:51:42;;;;;;;4.20;1.50;;;8.10;80.40;;;;;;5012345;28;20033;-73
2021/03/12 03:54:12;;;;;;;3.28;1.10;;;8.10;80.40;;;;;;5013003;28;20029;-74
2021/03/12 03:56:38;;;;;;;3.17;1.08;;;8.10;80.50;;;;;;5013495;28;20057;-73
2021/03/12 03:59:06;;;;;;;2.65;1.00;;;8.10;80.40;;;;;;5013121;28;20378;-73
2021/03/12 04:01:33;;;;;;;4.53;1.20;;;8.00;80.10;;;;;;5012689;28;20026;-73
2021/03/12 04:03:59;;;;;;;3.47;1.27;;;8.00;80.20;;;;;;5012805;28;20525;-73
2021/03/12 04:06:28;;;;;;;3.25;0.90;;;8.00;80.30;;;;;;5012533;28;20103;-73
2021/03/12 04:08:57;;;;;;;8.02;1.10;;;8.00;80.10;;;;;;5013058;28;20105;-73
2021/03/12 04:11:22;;;;;;;3.42;1.13;;;8.00;80.30;;;;;;5012315;28;20033;-74
2021/03/12 04:13:49;;;;;;;5.57;1.08;;;8.00;80.30;;;;;;5013221;28;20049;-73
2021/03/12 04:16:14;;;;;;;5.68;1.10;;;8.00;80.40;;;;;;5012413;28;20084;-73
2021/03/12 04:18:43;;;;;;;2.53;0.95;;;8.00;80.40;;;;;;5013095;28;20093;-73
2021/03/12 04:21:09;;;;;;;2.97;1.10;;;8.00;80.30;;;;;;5010993;28;20041;-74
2021/03/12 04:23:35;;;;;;;5.97;1.30;;;7.90;80.30;;;;;;5011668;28;20022;-73
2021/03/12 04:26:02;;;;;;;5.90;1.08;;;7.90;80.40;;;;;;5012509;28;20438;-73
2021/03/12 04:28:28;;;;;;;1.25;0.93;;;7.80;80.10;;;;;;5010845;28;20018;-74
2021/03/12 04:30:54;;;;;;;2.83;1.40;;;7.80;80.20;;;;;;5012628;28;20033;-74
2021/03/12 04:33:20;;;;;;;3.83;1.10;;;7.70;80.40;;;;;;5011675;28;20033;-74
2021/03/12 04:35:45;;;;;;;0.63;0.63;;;7.70;80.40;;;;;;5012663;28;20026;-73
2021/03/12 04:38:12;;;;;;;1.48;1.00;;;7.70;80.60;;;;;;5012122;28;20030;-72
2021/03/12 04:40:38;;;;;;;2.88;0.93;;;7.60;80.70;;;;;;5011318;28;20034;-73
2021/03/12 04:43:04;;;;;;;4.22;1.23;;;7.60;80.80;;;;;;5012306;28;20022;-74
2021/03/12 04:45:30;;;;;;;1.75;1.17;;;7.60;80.90;;;;;;5012009;28;20029;-73
2021/03/12 04:47:57;;;;;;;2.42;0.98;;;7.60;81.00;;;;;;5012682;28;20534;-73
2021/03/12 04:50:24;;;;;;;4.18;0.80;;;7.50;81.10;;;;;;5011742;28;20532;-74
2021/03/12 04:52:50;;;;;;;1.88;0.90;;;7.50;81.20;;;;;;5012561;28;20038;-74
2021/03/12 04:55:17;;;;;;;6.13;2.05;;;7.40;81.30;;;;;;5011766;28;20108;-75
2021/03/12 04:57:43;;;;;;;3.38;1.85;;;7.40;81.10;;;;;;5012469;28;20018;-74
2021/03/12 05:00:09;;;;;;;1.25;0.80;;;7.30;81.00;;;;;;5010929;28;20025;-72
2021/03/12 05:02:36;;;;;;;3.20;1.17;;;7.30;80.90;;;;;;5011430;28;20094;-73
2021/03/12 05:05:05;;;;;;;1.08;0.98;;;7.30;81.00;;;;;;5010742;28;20030;-75
2021/03/12 05:07:33;;;;;;;2.60;0.80;;;7.20;81.10;;;;;;5010362;28;20053;-74
2021/03/12 05:09:58;;;;;;;5.57;0.90;;;7.20;81.10;;;;;;5006768;28;20459;-73
2021/03/12 05:12:24;;;;;;;4.78;1.10;;;7.20;81.30;;;;;;5000509;28;20026;-74
2021/03/12 05:14:50;;;;;;;3.00;1.00;;;7.20;81.30;;;;;;5000178;28;20040;-72
2021/03/12 05:17:15;;;;;;;8.43;1.20;;;7.20;81.40;;;;;;5007704;28;20082;-72
2021/03/12 05:19:41;;;;;;;1.58;0.93;;;7.20;81.50;;;;;;5012329;28;20018;-74
2021/03/12 05:22:07;;;;;;;3.15;1.20;;;7.20;81.40;;;;;;5005615;28;20105;-73
2021/03/12 05:24:32;;;;;;;7.10;1.35;;;7.10;81.40;;;;;;4999470;28;20270;-73
2021/03/12 05:26:58;;;;;;;4.75;1.23;;;7.10;81.50;;;;;;5002598;28;20018;-73
2021/03/12 05:29:23;;;;;;;8.27;1.40;;;7.10;81.50;;;;;;5006557;28;20076;-74
2021/03/12 05:31:49;;;;;;;7.78;1.33;;;7.10;81.60;;;;;;5012063;28;20399;-74
2021/03/12 05:34:15;;;;;;;1.77;1.02;;;7.00;81.70;;;;;;5011465;28;20022;-73
2021/03/12 05:36:40;;;;;;;2.90;1.63;;;7.00;81.80;;;;;;5011888;28;20480;-74
2021/03/12 05:39:06;;;;;;;3.45;1.27;;;7.00;81.80;;;;;;5011914;28;20022;-74
2021/03/12 05:41:36;;;;;;;4.10;1.17;;;7.00;81.70;;;;;;5011259;28;20029;-74
2021/03/12 05:44:04;;;;;;;3.38;1.08;;;7.00;81.80;;;;;;5011780;28;20029;-74
2021/03/12 05:46:30;;;;;;;6.88;1.25;;;7.00;81.80;;;;;;5011251;28;20480;-73
2021/03/12 05:48:57;;;;;;;1.73;0.98;;;7.00;81.70;;;;;;5008794;28;20506;-77
2021/03/12 05:51:23;;;;;;;3.78;0.98;;;6.90;81.80;;;;;;5008925;28;20042;-77
2021/03/12 05:53:48;;;;;;;6.38;1.38;;;6.90;81.70;;;;;;5009489;28;20045;-75
2021/03/12 05:56:15;;;;;;;5.28;2.25;;;6.90;81.90;;;;;;5009861;28;20068;-74
2021/03/12 05:58:41;;;;;;;3.38;1.35;;;6.90;81.90;;;;;;5024179;28;20018;-73
2021/03/12 06:01:07;;;;;;;1.40;1.30;;;6.90;81.90;;;;;;5008012;28;20029;-75
2021/03/12 06:03:32;;;;;;;3.38;1.17;;;6.90;81.60;;;;;;4991606;28;20344;-74
2021/03/12 06:05:58;;;;;;;2.25;1.23;;;6.90;81.70;;;;;;4994599;28;20046;-74
2021/03/12 06:08:24;;;;;;;4.45;1.13;;;6.90;81.90;;;;;;4992981;28;20310;-75
2021/03/12 06:10:50;;;;;;;4.97;2.03;;;6.90;81.90;;;;;;4988768;28;20046;-73
2021/03/12 06:13:16;;;;;;;4.30;1.48;;;6.80;81.80;;;;;;4991458;28;20018;-73
2021/03/12 06:15:46;;;;;;;1.98;1.00;;;6.90;81.90;;;;;;4992600;28;20026;-73
2021/03/12 06:18:15;;;;;;;5.07;1.13;;;6.80;81.80;;;;;;4995683;28;20022;-74
2021/03/12 06:20:41;;;;;;;3.67;1.50;;;6.80;81.80;;;;;;4994971;28;20484;-74
2021/03/12 06:23:07;;;;;;;1.40;1.30;;;6.80;81.70;;;;;;4993969;28;20019;-74
2021/03/12 06:25:34;;;;;;;3.63;1.40;;;6.80;81.80;;;;;;4994947;28;20030;-74
2021/03/12 06:28:19;;;;;;;5.68;2.35;;;6.80;81.90;;;;;;4995593;28;20117;-74
2021/03/12 06:30:45;;;;;;;2.20;1.35;;;6.80;81.80;;;;;;4995547;28;20022;-74
2021/03/12 06:33:32;;;;;;;3.17;1.33;;;6.80;81.70;;;;;;4994012;28;20026;-73
2021/03/12 06:36:00;;;;;;;3.75;1.67;;;6.90;81.70;;;;;;4993985;28;20419;-74
2021/03/12 06:38:26;;;;;;;4.40;1.48;;;6.80;81.70;;;;;;4995242;28;20464;-73
2021/03/12 06:40:52;;;;;;;8.82;1.50;;;6.80;81.50;;;;;;4995311;28;20022;-73
2021/03/12 06:43:20;;;;;;;3.95;1.77;;;6.80;81.60;;;;;;4993666;28;20024;-73
2021/03/12 06:45:45;;;;;;;3.80;1.58;;;6.80;81.40;;;;;;4995241;28;20053;-74
2021/03/12 06:48:27;;;;;;;4.55;1.13;;;6.90;81.60;;;;;;4995241;28;20467;-74
2021/03/12 06:51:03;;;;;;;4.68;1.30;;;6.90;81.70;;;;;;4995151;28;20042;-74
2021/03/12 06:53:34;;;;;;;4.65;1.50;;;6.80;81.50;;;;;;4994595;28;20049;-74
2021/03/12 06:56:08;;;;;;;4.40;1.30;;;6.80;81.50;;;;;;4995061;28;20062;-75
2021/03/12 06:58:34;;;;;;;4.88;1.05;;;6.90;81.50;;;;;;4993126;28;20193;-74
2021/03/12 07:01:01;;;;;;;2.30;1.90;;;6.80;81.30;;;;;;4994769;28;20034;-73
2021/03/12 07:03:34;;;;;;;3.85;1.73;;;6.90;81.40;;;;;;4994339;28;20029;-74
2021/03/12 07:06:04;;;;;;;9.02;1.65;;;6.90;81.30;;;;;;4995161;28;20504;-74
2021/03/12 07:08:33;;;;;;;4.53;1.85;;;6.90;81.20;;;;;;4992798;28;20065;-75
2021/03/12 07:11:00;;;;;;;4.35;1.80;;;6.80;81.10;;;;;;4994733;28;20034;-74
2021/03/12 07:13:27;;;;;;;5.72;1.80;;;6.80;81.10;;;;;;4994067;28;20031;-73
2021/03/12 07:15:54;;;;;;;1.63;0.98;;;6.90;81.30;;;;;;4994745;28;20125;-75
2021/03/12 07:18:20;;;;;;;2.45;1.02;;;6.90;81.10;;;;;;4994291;28;20540;-73
2021/03/12 07:20:46;;;;;;;9.85;1.67;;;6.90;81.00;;;;;;4993867;28;20031;-76
2021/03/12 07:23:17;;;;;;;1.73;1.00;;;7.00;81.10;;;;;;4994242;28;20026;-74
2021/03/12 07:25:45;;;;;;;2.42;1.27;;;7.00;81.00;;;;;;4993606;28;20113;-74
2021/03/12 07:28:14;;;;;;;7.25;1.55;;;7.00;81.00;;;;;;4993205;28;20022;-74
2021/03/12 07:30:41;;;;;;;5.80;1.83;;;7.00;80.80;;;;;;4993638;28;20038;-74
2021/03/12 07:33:08;;;;;;;2.72;1.52;;;7.00;80.70;;;;;;4994219;28;20023;-74
2021/03/12 07:35:36;;;;;;;2.53;1.05;;;7.10;80.70;;;;;;4993559;28;20208;-73
2021/03/12 07:38:05;;;;;;;5.72;1.70;;;7.10;80.60;;;;;;4994008;28;20034;-74
2021/03/12 07:40:31;;;;;;;2.90;1.25;;;7.10;80.60;;;;;;4993402;28;20031;-74
2021/03/12 07:42:57;;;;;;;5.18;1.50;;;7.20;80.70;;;;;;4994119;28;20026;-74
2021/03/12 07:45:24;;;;;;;4.68;1.70;;;7.20;80.70;;;;;;4994298;28;20058;-74
2021/03/12 07:47:50;;;;;;;5.05;1.77;;;7.20;80.50;;;;;;4993446;28;20029;-74
2021/03/12 07:50:26;;;;;;;2.40;1.67;;;7.20;80.30;;;;;;4993978;28;20031;-73
2021/03/12 07:52:53;;;;;;;5.75;1.20;;;7.30;80.40;;;;;;4992736;28;20018;-74
2021/03/12 07:55:50;;;;;;;5.32;1.40;;;7.20;80.30;;;;;;4993585;28;20482;-73
2021/03/12 07:58:44;;;;;;;2.67;1.27;;;7.30;80.00;;;;;;4985544;28;20118;-75
2021/03/12 08:01:09;;;;;;;4.32;1.40;;;7.30;80.30;;;;;;4994052;28;20034;-73
2021/03/12 08:03:39;;;;;;;2.85;1.38;;;7.30;80.20;;;;;;4993426;28;20491;-74
2021/03/12 08:06:17;;;;;;;5.70;1.67;;;7.40;80.00;;;;;;4993689;28;20026;-75
2021/03/12 08:08:43;;;;;;;13.30;2.47;;;7.50;80.10;;;;;;4993211;28;20066;-74
2021/03/12 08:11:51;;;;;;;6.85;1.65;;;7.50;80.10;;;;;;4993204;28;20369;-74
2021/03/12 08:14:19;;;;;;;3.08;1.00;;;7.50;79.70;;;;;;4964813;28;20126;-73
2021/03/12 08:16:56;;;;;;;5.10;1.65;;;7.60;79.80;;;;;;4992890;28;20034;-74
2021/03/12 08:19:35;;;;;;;3.33;1.70;;;7.70;79.70;;;;;;4993363;28;20137;-74
2021/03/12 08:22:22;;;;;;;4.80;1.23;;;7.70;79.50;;;;;;4993168;28;20026;-74
2021/03/12 08:24:51;;;;;;;7.20;1.77;;;7.70;79.50;;;;;;4985137;28;20039;-74
2021/03/12 08:27:49;;;;;;;2.03;1.40;;;7.80;79.40;;;;;;4993602;28;20104;-75
2021/03/12 08:30:24;;;;;;;6.20;1.52;;;7.80;79.40;;;;;;4985045;28;20045;-74
2021/03/12 08:32:50;;;;;;;2.75;1.15;;;7.90;78.90;;;;;;4992655;28;20042;-74
2021/03/12 08:35:34;;;;;;;2.63;1.27;;;7.90;79.00;;;;;;4993030;28;20452;-73
2021/03/12 08:38:03;;;;;;;4.45;1.77;;;8.00;78.60;;;;;;4992441;28;20089;-74
2021/03/12 08:40:31;;;;;;;4.13;1.75;;;8.00;78.60;;;;;;4990920;28;20034;-74
2021/03/12 08:43:31;;;;;;;3.55;1.30;;;8.00;78.60;;;;;;4991621;28;20026;-74
2021/03/12 08:45:59;;;;;;;7.28;1.35;;;8.10;78.50;;;;;;4970943;28;20034;-74
2021/03/12 08:48:30;;;;;;;3.53;1.55;;;8.10;78.70;;;;;;4991428;28;20038;-74
2021/03/12 08:51:12;;;;;;;4.97;2.10;;;8.30;78.20;;;;;;4992892;28;20031;-74
2021/03/12 08:53:44;;;;;;;2.70;1.27;;;8.30;78.10;;;;;;4992264;28;20037;-74
2021/03/12 08:56:10;;;;;;;7.47;1.35;;;8.50;77.80;;;;;;4992974;28;20476;-75
2021/03/12 08:58:37;;;;;;;7.13;3.10;;;8.60;77.20;;;;;;4992186;28;20027;-73
2021/03/12 09:01:17;;;;;;;5.00;2.60;;;8.70;76.80;;;;;;4992498;28;20034;-73
2021/03/12 09:03:47;;;;;;;5.07;2.45;;;8.90;76.20;;;;;;4992031;28;20033;-74
2021/03/12 09:06:15;;;;;;;3.05;1.50;;;9.00;75.70;;;;;;4991324;28;20353;-75
2021/03/12 09:08:42;;;;;;;4.32;1.55;;;9.00;75.10;;;;;;4992247;28;20038;-75
2021/03/12 09:11:10;;;;;;;4.85;1.75;;;9.00;75.50;;;;;;4992473;28;20065;-74
2021/03/12 09:13:42;;;;;;;4.63;2.05;;;9.10;75.80;;;;;;4991663;28;20019;-74
2021/03/12 09:16:08;;;;;;;8.73;1.67;;;9.30;75.80;;;;;;4992603;28;20022;-75
2021/03/12 09:18:36;;;;;;;6.60;1.75;;;9.40;74.90;;;;;;4991927;28;20113;-72
2021/03/12 09:21:07;;;;;;;11.30;1.70;;;9.50;75.00;;;;;;4991050;28;20102;-73
2021/03/12 09:23:38;;;;;;;3.78;1.70;;;9.60;74.70;;;;;;4990620;28;20113;-74
2021/03/12 09:26:06;;;;;;;13.55;1.85;;;9.70;75.10;;;;;;4990715;28;20019;-74
2021/03/12 09:28:32;;;;;;;5.13;1.80;;;9.80;73.90;;;;;;4992138;28;20113;-74
2021/03/12 09:30:59;;;;;;;5.07;1.70;;;9.80;73.10;;;;;;4992297;28;20490;-73
2021/03/12 09:33:36;;;;;;;2.30;1.02;;;9.70;73.10;;;;;;4992437;28;20018;-75
2021/03/12 09:36:27;;;;;;;9.82;2.05;;;9.70;73.10;;;;;;4992217;28;20549;-74
2021/03/12 09:39:19;;;;;;;5.28;1.88;;;9.60;73.30;;;;;;4985670;28;20049;-74
2021/03/12 09:42:09;;;;;;;5.40;1.83;;;9.60;73.60;;;;;;4991611;28;20102;-75
2021/03/12 09:44:35;;;;;;;7.07;2.30;;;9.60;73.70;;;;;;4991626;28;20018;-74
2021/03/12 09:47:07;;;;;;;5.53;2.15;;;9.50;73.10;;;;;;4991969;28;20061;-74
2021/03/12 09:49:37;;;;;;;4.45;1.50;;;9.60;73.60;;;;;;4993275;28;20158;-74
2021/03/12 09:52:21;;;;;;;8.90;1.60;;;9.60;73.80;;;;;;4996030;28;20033;-75
2021/03/12 09:54:49;;;;;;;8.68;1.75;;;9.60;73.10;;;;;;4995832;28;20088;-74
2021/03/12 09:57:20;;;;;;;5.25;1.92;;;9.60;73.00;;;;;;4994866;28;20022;-73
2021/03/12 09:59:52;;;;;;;7.10;2.47;;;9.50;72.80;;;;;;4995183;28;20058;-74
2021/03/12 10:02:19;;;;;;;4.22;1.83;;;9.50;72.60;;;;;;4994351;28;20481;-74
2021/03/12 10:04:48;;;;;;;4.45;1.48;;;9.50;72.70;;;;;;4995141;28;20026;-74
2021/03/12 10:07:16;;;;;;;3.67;1.40;;;9.50;73.00;;;;;;4995835;28;20483;-74
2021/03/12 10:09:46;;;;;;;6.25;2.22;;;9.50;73.10;;;;;;4995116;28;20077;-74
2021/03/12 10:12:20;;;;;;;4.75;1.40;;;9.60;73.10;;;;;;4995593;28;20058;-74
2021/03/12 10:14:50;;;;;;;3.97;1.55;;;9.60;73.20;;;;;;4993716;28;20367;-74
2021/03/12 10:17:21;;;;;;;6.70;2.53;;;9.60;73.30;;;;;;4994279;28;20018;-74
2021/03/12 10:19:52;;;;;;;;;;;9.70;73.40;;;;;;4994049;28;20033;-74
2021/03/12 10:22:34;;;;;;;3.20;1.20;;;9.60;73.20;;;;;;5010607;28;19996;-74
2021/03/12 10:24:59;;;;;;;2.53;1.27;;;9.70;73.40;;;;;;4993906;28;20384;-73
2021/03/12 10:27:28;;;;;;;2.28;1.33;;;9.70;73.50;;;;;;4995437;28;20034;-74
2021/03/12 10:29:54;;;;;;;8.00;2.70;;;9.80;73.50;;;;;;4994645;28;20209;-74
2021/03/12 10:32:21;;;;;;;5.65;1.60;;;9.70;72.50;;;;;;4995229;28;20543;-74
2021/03/12 10:34:55;;;;;;;4.13;2.08;;;9.60;73.40;;;;;;4994715;28;20046;-74
2021/03/12 10:37:24;;;;;;;5.22;2.00;;;9.50;74.20;;;;;;4995295;28;20026;-74
2021/03/12 10:39:52;;;;;;;5.82;1.70;;;9.40;75.10;;;;;;4994583;28;20097;-73
2021/03/12 10:42:28;;;;;;;2.42;2.03;;;9.30;76.00;;;;;;4995115;28;20018;-73
2021/03/12 10:45:22;;;;;;;7.40;1.90;;;9.10;77.20;;;;;;4994341;28;20041;-73
2021/03/12 10:48:03;;;;;;;5.32;1.80;;;9.00;79.60;;;;;;4984755;28;20030;-74
2021/03/12 10:50:31;;;;;;;10.47;1.70;;;8.80;82.00;;;;;;4993828;28;20104;-74
2021/03/12 10:53:14;;;;;;;9.43;1.85;;;8.60;83.30;;;;;;4994361;28;20023;-74
2021/03/12 10:55:51;;;;;;;4.40;1.67;;;8.60;83.90;;;;;;4994262;28;20026;-75
2021/03/12 10:58:28;;;;;;;5.03;1.90;;;8.50;83.90;;;;;;4995158;28;20041;-73
2021/03/12 11:01:24;;;;;;;6.97;1.63;;;8.50;83.90;;;;;;4993471;28;20026;-73
2021/03/12 11:03:52;;;;;;;4.70;1.67;;;8.60;83.90;;;;;;4994349;28;20030;-72
2021/03/12 11:06:19;;;;;;;3.47;1.90;;;8.60;84.20;;;;;;4993679;28;20368;-73
2021/03/12 11:08:46;;;;;;;2.20;1.85;;;8.50;84.70;;;;;;4994097;28;20046;-73
2021/03/12 11:11:17;;;;;;;3.83;2.08;;;8.50;84.80;;;;;;4994647;28;20074;-74
2021/03/12 11:13:42;;;;;;;5.40;1.30;;;8.40;85.50;;;;;;4993872;28;20014;-74
2021/03/12 11:16:09;;;;;;;4.22;1.23;;;8.30;86.50;;;;;;4994667;28;20261;-74
2021/03/12 11:18:36;;;;;;;3.83;1.35;;;8.20;87.00;;;;;;4994360;28;20030;-74
2021/03/12 11:21:05;;;;;;;2.85;1.08;;;8.20;87.60;;;;;;4993707;28;20061;-75
2021/03/12 11:23:31;;;;;;;5.00;1.30;;;8.20;87.40;;;;;;4993110;28;20031;-74
2021/03/12 11:25:57;;;;;;;3.20;1.40;;;8.10;87.40;;;;;;4993831;28;20129;-73
2021/03/12 11:28:25;;;;;;;7.50;1.90;;;8.20;87.50;;;;;;4994424;28;20035;-73
2021/03/12 11:30:52;;;;;;;3.35;1.85;;;8.10;87.50;;;;;;4992278;28;20499;-73
2021/03/12 11:33:18;;;;;;;6.93;1.70;;;8.30;87.50;;;;;;4992888;28;20534;-74
2021/03/12 11:35:44;;;;;;;8.57;1.75;;;8.40;87.30;;;;;;4993383;28;20023;-73
2021/03/12 11:38:10;;;;;;;2.80;1.42;;;8.50;87.30;;;;;;4994081;28;20053;-74
2021/03/12 11:40:36;;;;;;;8.02;1.95;;;8.50;87.10;;;;;;4994111;28;20461;-74
2021/03/12 11:43:03;;;;;;;6.25;2.05;;;8.60;86.60;;;;;;4993244;28;20128;-73
2021/03/12 11:45:29;;;;;;;9.73;2.28;;;8.70;86.30;;;;;;4994013;28;20042;-73
2021/03/12 11:47:58;;;;;;;4.03;1.40;;;8.80;86.10;;;;;;4993450;28;20023;-74
2021/03/12 11:50:27;;;;;;;3.67;1.52;;;8.90;86.10;;;;;;4992249;28;20026;-74
2021/03/12 11:52:54;;;;;;;5.43;1.77;;;8.90;85.90;;;;;;4993359;28;20018;-73
2021/03/12 11:55:21;;;;;;;4.22;1.73;;;8.90;85.80;;;;;;4994364;28;20029;-73
2021/03/12 11:57:46;;;;;;;8.63;1.83;;;8.90;84.30;;;;;;4993222;28;20030;-74
2021/03/12 12:00:13;;;;;;;6.47;1.38;;;8.90;84.60;;;;;;4992243;28;20026;-73
2021/03/12 12:02:40;;;;;;;6.93;2.25;;;8.90;84.00;;;;;;4992206;28;20098;-74
2021/03/12 12:05:08;;;;;;;3.90;1.27;;;8.90;83.60;;;;;;4993003;28;20097;-73
2021/03/12 12:07:34;;;;;;;4.55;1.45;;;8.90;83.90;;;;;;4991834;28;20054;-74
2021/03/12 12:10:00;;;;;;;6.95;1.85;;;9.00;83.50;;;;;;4992817;28;20112;-73
2021/03/12 12:12:26;;;;;;;5.35;1.48;;;9.10;83.80;;;;;;4993061;28;20105;-73
2021/03/12 12:14:52;;;;;;;6.38;1.55;;;9.20;82.30;;;;;;4992507;28;20105;-74
2021/03/12 12:17:18;;;;;;;4.07;1.45;;;9.30;80.10;;;;;;4992058;28;20086;-74
2021/03/12 12:19:46;;;;;;;4.78;1.25;;;9.50;79.80;;;;;;4992088;28;20076;-74
2021/03/12 12:22:12;;;;;;;2.63;1.52;;;9.60;79.50;;;;;;4993312;28;20034;-74
2021/03/12 12:24:39;;;;;;;10.77;1.38;;;9.80;77.60;;;;;;4993341;28;20029;-74
2021/03/12 12:27:06;;;;;;;3.72;1.95;;;9.80;76.50;;;;;;4992339;28;20556;-74
2021/03/12 12:29:32;;;;;;;3.88;1.42;;;9.90;77.10;;;;;;4992953;28;20045;-74
2021/03/12 12:31:57;;;;;;;8.20;1.42;;;9.90;76.90;;;;;;4992405;28;20464;-75
2021/03/12 12:34:23;;;;;;;4.30;1.45;;;9.90;76.70;;;;;;4993185;28;20038;-74
2021/03/12 12:36:50;;;;;;;6.47;1.23;;;9.90;75.30;;;;;;4992350;28;20048;-74
2021/03/12 12:39:16;;;;;;;3.38;1.10;;;9.80;75.60;;;;;;4992986;28;20034;-73
2021/03/12 12:41:42;;;;;;;5.18;1.27;;;9.80;75.00;;;;;;4992944;28;20122;-74
2021/03/12 12:44:09;;;;;;;5.97;2.08;;;9.80;75.10;;;;;;4992426;28;20026;-74
2021/03/12 12:46:35;;;;;;;2.55;1.17;;;9.90;74.10;;;;;;4992579;28;20069;-74
2021/03/12 12:49:02;;;;;;;3.22;1.02;;;9.90;73.90;;;;;;4992279;28;20030;-74
2021/03/12 12:51:28;;;;;;;4.72;1.65;;;9.90;73.50;;;;;;4991380;28;20041;-74
2021/03/12 12:53:54;;;;;;;6.65;1.27;;;9.80;75.10;;;;;;4992417;28;20105;-73
2021/03/12 12:56:20;;;;;;;5.10;1.17;;;9.80;75.70;;;;;;4992623;28;20058;-73
2021/03/12 12:58:45;;;;;;;2.42;1.38;;;9.70;77.80;;;;;;4992532;28;20486;-72
2021/03/12 13:01:12;;;;;;;1.50;0.95;;;9.50;78.60;;;;;;4990874;28;20129;-73
2021/03/12 13:03:38;;;;;;;6.60;1.73;;;9.40;79.60;;;;;;4992893;28;20088;-73
2021/03/12 13:06:05;;;;;;;2.70;2.03;;;9.40;79.60;;;;;;4992180;28;20026;-73
2021/03/12 13:08:32;;;;;;;4.32;1.40;;;9.30;79.80;;;;;;4992046;28;20050;-73